sensor_id;sensor_type;location;lat;lon;timestamp;pressure;altitude;pressure_sealevel;temperature;humidity
62800;BME280;48842;51.046;13.796;2023-03-26T00:01:40;99316.53;;;11.83;56.36
62800;BME280;48842;51.046;13.796;2023-03-26T00:04:10;99323.47;;;11.85;56.14
62800;BME280;48842;51.046;13.796;2023-03-26T00:06:37;99324.34;;;11.86;55.97
62800;BME280;48842;51.046;13.796;2023-03-26T00:09:05;99317.41;;;11.83;55.48
62800;BME280;48842;51.046;13.796;2023-03-26T00:11:31;99329.00;;;11.70;54.56
62800;BME280;48842;51.046;13.796;2023-03-26T00:13:57;99319.44;;;11.67;55.36
62800;BME280;48842;51.046;13.796;2023-03-26T00:16:28;99326.72;;;11.50;55.23
62800;BME280;48842;51.046;13.796;2023-03-26T00:18:54;99333.66;;;11.52;54.88
62800;BME280;48842;51.046;13.796;2023-03-26T00:21:22;99351.28;;;11.44;54.78
62800;BME280;48842;51.046;13.796;2023-03-26T00:23:55;99340.91;;;11.37;54.84
62800;BME280;48842;51.046;13.796;2023-03-26T00:26:22;99330.38;;;11.40;55.25
62800;BME280;48842;51.046;13.796;2023-03-26T00:28:48;99334.88;;;11.31;54.75
62800;BME280;48842;51.046;13.796;2023-03-26T00:31:15;99338.22;;;11.41;55.19
62800;BME280;48842;51.046;13.796;2023-03-26T00:33:41;99350.53;;;11.38;54.91
62800;BME280;48842;51.046;13.796;2023-03-26T00:36:12;99343.78;;;11.20;55.31
62800;BME280;48842;51.046;13.796;2023-03-26T00:38:42;99352.59;;;11.17;55.61
62800;BME280;48842;51.046;13.796;2023-03-26T00:41:09;99342.81;;;11.27;55.41
62800;BME280;48842;51.046;13.796;2023-03-26T00:43:41;99339.19;;;11.34;55.39
62800;BME280;48842;51.046;13.796;2023-03-26T00:46:07;99359.44;;;11.24;55.97
62800;BME280;48842;51.046;13.796;2023-03-26T00:48:32;99333.34;;;11.16;55.84
62800;BME280;48842;51.046;13.796;2023-03-26T00:50:58;99335.84;;;11.24;55.62
62800;BME280;48842;51.046;13.796;2023-03-26T00:53:23;99325.34;;;11.27;55.81
62800;BME280;48842;51.046;13.796;2023-03-26T00:55:48;99346.22;;;11.32;55.54
62800;BME280;48842;51.046;13.796;2023-03-26T00:58:14;99343.69;;;11.27;55.58
62800;BME280;48842;51.046;13.796;2023-03-26T01:00:56;99329.81;;;11.19;55.92
62800;BME280;48842;51.046;13.796;2023-03-26T01:03:23;99335.91;;;11.21;55.91
62800;BME280;48842;51.046;13.796;2023-03-26T01:05:56;99328.06;;;11.20;55.99
62800;BME280;48842;51.046;13.796;2023-03-26T01:08:29;99328.03;;;11.21;55.70
62800;BME280;48842;51.046;13.796;2023-03-26T01:10:57;99319.19;;;11.28;55.46
62800;BME280;48842;51.046;13.796;2023-03-26T01:13:32;99317.53;;;11.21;55.68
62800;BME280;48842;51.046;13.796;2023-03-26T01:15:59;99317.53;;;11.23;56.05
62800;BME280;48842;51.046;13.796;2023-03-26T01:18:27;99315.78;;;11.23;56.18
62800;BME280;48842;51.046;13.796;2023-03-26T01:20:54;99311.38;;;11.25;56.15
62800;BME280;48842;51.046;13.796;2023-03-26T01:23:37;99310.50;;;11.26;56.31
62800;BME280;48842;51.046;13.796;2023-03-26T01:26:25;99307.78;;;11.31;56.41
62800;BME280;48842;51.046;13.796;2023-03-26T01:28:57;99315.88;;;11.18;56.49
62800;BME280;48842;51.046;13.796;2023-03-26T01:31:31;99322.00;;;11.16;55.97
62800;BME280;48842;51.046;13.796;2023-03-26T01:36:56;99313.34;;;11.11;56.68
62800;BME280;48842;51.046;13.796;2023-03-26T01:39:30;99315.13;;;11.09;56.58
62800;BME280;48842;51.046;13.796;2023-03-26T01:42:09;99325.50;;;11.15;56.18
62800;BME280;48842;51.046;13.796;2023-03-26T01:44:56;99336.38;;;10.87;56.51
62800;BME280;48842;51.046;13.796;2023-03-26T01:47:27;99325.75;;;10.98;56.37
62800;BME280;48842;51.046;13.796;2023-03-26T01:49:53;99323.13;;;10.98;56.30
62800;BME280;48842;51.046;13.796;2023-03-26T01:52:20;99325.75;;;10.99;56.25
62800;BME280;48842;51.046;13.796;2023-03-26T01:54:49;99326.72;;;10.92;56.29
62800;BME280;48842;51.046;13.796;2023-03-26T01:57:22;99329.41;;;10.86;56.77
62800;BME280;48842;51.046;13.796;2023-03-26T02:02:49;99325.34;;;10.65;56.74
62800;BME280;48842;51.046;13.796;2023-03-26T02:05:24;99330.47;;;10.73;57.03
62800;BME280;48842;51.046;13.796;2023-03-26T02:08:01;99321.72;;;10.75;56.92
62800;BME280;48842;51.046;13.796;2023-03-26T02:10:34;99322.66;;;10.70;57.39
62800;BME280;48842;51.046;13.796;2023-03-26T02:13:00;99325.38;;;10.62;57.20
62800;BME280;48842;51.046;13.796;2023-03-26T02:15:26;99323.59;;;10.64;57.41
62800;BME280;48842;51.046;13.796;2023-03-26T02:17:52;99320.94;;;10.67;57.44
62800;BME280;48842;51.046;13.796;2023-03-26T02:20:19;99339.31;;;10.64;57.86
62800;BME280;48842;51.046;13.796;2023-03-26T02:22:45;99340.28;;;10.55;57.99
62800;BME280;48842;51.046;13.796;2023-03-26T02:25:17;99328.94;;;10.56;58.32
62800;BME280;48842;51.046;13.796;2023-03-26T02:27:44;99333.16;;;10.68;57.75
62800;BME280;48842;51.046;13.796;2023-03-26T02:30:13;99332.22;;;10.74;57.92
62800;BME280;48842;51.046;13.796;2023-03-26T02:32:39;99332.31;;;10.66;58.23
62800;BME280;48842;51.046;13.796;2023-03-26T02:35:05;99333.13;;;10.70;58.31
62800;BME280;48842;51.046;13.796;2023-03-26T02:37:31;99335.78;;;10.67;58.64
62800;BME280;48842;51.046;13.796;2023-03-26T02:40:01;99332.47;;;10.52;58.96
62800;BME280;48842;51.046;13.796;2023-03-26T02:42:26;99331.53;;;10.58;58.92
62800;BME280;48842;51.046;13.796;2023-03-26T02:44:51;99341.97;;;10.59;58.91
62800;BME280;48842;51.046;13.796;2023-03-26T02:47:17;99331.56;;;10.56;58.94
62800;BME280;48842;51.046;13.796;2023-03-26T02:49:43;99338.56;;;10.54;59.57
62800;BME280;48842;51.046;13.796;2023-03-26T02:52:08;99330.63;;;10.60;59.52
62800;BME280;48842;51.046;13.796;2023-03-26T02:54:34;99353.47;;;10.47;60.20
62800;BME280;48842;51.046;13.796;2023-03-26T02:56:59;99338.59;;;10.51;60.48
62800;BME280;48842;51.046;13.796;2023-03-26T02:59:25;99341.25;;;10.48;60.24
62800;BME280;48842;51.046;13.796;2023-03-26T03:01:51;99342.97;;;10.49;60.49
62800;BME280;48842;51.046;13.796;2023-03-26T03:04:16;99339.50;;;10.50;60.58
62800;BME280;48842;51.046;13.796;2023-03-26T03:06:42;99331.63;;;10.52;60.51
62800;BME280;48842;51.046;13.796;2023-03-26T03:09:08;99328.06;;;10.57;60.31
62800;BME280;48842;51.046;13.796;2023-03-26T03:11:35;99332.47;;;10.52;60.45
62800;BME280;48842;51.046;13.796;2023-03-26T03:14:00;99330.69;;;10.56;60.43
62800;BME280;48842;51.046;13.796;2023-03-26T03:16:26;99336.88;;;10.50;60.36
62800;BME280;48842;51.046;13.796;2023-03-26T03:18:53;99332.47;;;10.52;60.23
62800;BME280;48842;51.046;13.796;2023-03-26T03:21:19;99334.22;;;10.53;60.49
62800;BME280;48842;51.046;13.796;2023-03-26T03:23:44;99326.38;;;10.52;60.21
62800;BME280;48842;51.046;13.796;2023-03-26T03:26:13;99336.91;;;10.47;61.01
62800;BME280;48842;51.046;13.796;2023-03-26T03:28:39;99324.81;;;10.37;61.25
62800;BME280;48842;51.046;13.796;2023-03-26T03:31:05;99324.78;;;10.40;61.41
62800;BME280;48842;51.046;13.796;2023-03-26T03:33:30;99335.28;;;10.37;61.74
62800;BME280;48842;51.046;13.796;2023-03-26T03:35:55;99326.50;;;10.39;61.85
62800;BME280;48842;51.046;13.796;2023-03-26T03:38:20;99326.56;;;10.33;62.59
62800;BME280;48842;51.046;13.796;2023-03-26T03:40:46;99323.13;;;10.26;62.18
62800;BME280;48842;51.046;13.796;2023-03-26T03:43:11;99328.34;;;10.29;62.31
62800;BME280;48842;51.046;13.796;2023-03-26T03:45:36;99326.53;;;10.38;61.82
62800;BME280;48842;51.046;13.796;2023-03-26T03:48:01;99329.94;;;10.46;61.37
62800;BME280;48842;51.046;13.796;2023-03-26T03:50:27;99329.13;;;10.39;62.00
62800;BME280;48842;51.046;13.796;2023-03-26T03:52:52;99329.94;;;10.46;61.46
62800;BME280;48842;51.046;13.796;2023-03-26T03:55:17;99324.69;;;10.47;61.70
62800;BME280;48842;51.046;13.796;2023-03-26T03:57:43;99323.00;;;10.42;62.13
62800;BME280;48842;51.046;13.796;2023-03-26T04:00:09;99330.78;;;10.46;62.13
62800;BME280;48842;51.046;13.796;2023-03-26T04:02:36;99326.44;;;10.48;61.78
62800;BME280;48842;51.046;13.796;2023-03-26T04:05:03;99315.06;;;10.48;61.86
62800;BME280;48842;51.046;13.796;2023-03-26T04:07:29;99317.72;;;10.45;61.41
62800;BME280;48842;51.046;13.796;2023-03-26T04:09:56;99320.38;;;10.42;61.50
62800;BME280;48842;51.046;13.796;2023-03-26T04:12:24;99317.66;;;10.50;61.49
62800;BME280;48842;51.046;13.796;2023-03-26T04:14:49;99325.50;;;10.51;61.52
62800;BME280;48842;51.046;13.796;2023-03-26T04:17:14;99322.88;;;10.51;61.29
62800;BME280;48842;51.046;13.796;2023-03-26T04:19:40;99321.13;;;10.53;61.41
62800;BME280;48842;51.046;13.796;2023-03-26T04:22:05;99327.19;;;10.55;61.15
62800;BME280;48842;51.046;13.796;2023-03-26T04:24:31;99321.97;;;10.55;61.24
62800;BME280;48842;51.046;13.796;2023-03-26T04:27:05;99315.75;;;10.62;60.78
62800;BME280;48842;51.046;13.796;2023-03-26T04:29:37;99313.97;;;10.66;61.00
62800;BME280;48842;51.046;13.796;2023-03-26T04:32:09;99315.81;;;10.59;60.87
62800;BME280;48842;51.046;13.796;2023-03-26T04:34:36;99309.72;;;10.59;60.94
62800;BME280;48842;51.046;13.796;2023-03-26T04:37:02;99303.53;;;10.64;61.02
62800;BME280;48842;51.046;13.796;2023-03-26T04:39:27;99307.84;;;10.67;61.06
62800;BME280;48842;51.046;13.796;2023-03-26T04:41:53;99306.09;;;10.68;60.72
62800;BME280;48842;51.046;13.796;2023-03-26T04:44:18;99301.66;;;10.73;60.49
62800;BME280;48842;51.046;13.796;2023-03-26T04:46:47;99298.13;;;10.77;60.57
62800;BME280;48842;51.046;13.796;2023-03-26T04:49:12;99305.94;;;10.80;60.22
62800;BME280;48842;51.046;13.796;2023-03-26T04:51:39;99300.72;;;10.78;60.02
62800;BME280;48842;51.046;13.796;2023-03-26T04:54:06;99292.13;;;10.67;59.78
62800;BME280;48842;51.046;13.796;2023-03-26T04:56:50;99294.69;;;10.73;59.79
62800;BME280;48842;51.046;13.796;2023-03-26T04:59:28;99292.91;;;10.74;59.99
62800;BME280;48842;51.046;13.796;2023-03-26T05:02:00;99286.75;;;10.78;59.73
62800;BME280;48842;51.046;13.796;2023-03-26T05:04:26;99293.75;;;10.76;59.75
62800;BME280;48842;51.046;13.796;2023-03-26T05:06:54;99296.38;;;10.76;59.56
62800;BME280;48842;51.046;13.796;2023-03-26T05:09:20;99303.34;;;10.77;59.31
62800;BME280;48842;51.046;13.796;2023-03-26T05:11:46;99302.44;;;10.79;59.09
62800;BME280;48842;51.046;13.796;2023-03-26T05:14:12;99305.19;;;10.69;59.45
62800;BME280;48842;51.046;13.796;2023-03-26T05:16:37;99308.72;;;10.68;59.62
62800;BME280;48842;51.046;13.796;2023-03-26T05:19:03;99305.13;;;10.76;59.17
62800;BME280;48842;51.046;13.796;2023-03-26T05:21:28;99306.84;;;10.76;59.18
62800;BME280;48842;51.046;13.796;2023-03-26T05:23:54;99298.94;;;10.82;59.05
62800;BME280;48842;51.046;13.796;2023-03-26T05:26:19;99311.09;;;10.85;59.06
62800;BME280;48842;51.046;13.796;2023-03-26T05:28:45;99299.75;;;10.84;58.98
62800;BME280;48842;51.046;13.796;2023-03-26T05:31:10;99309.41;;;10.79;58.89
62800;BME280;48842;51.046;13.796;2023-03-26T05:33:35;99305.91;;;10.81;58.74
62800;BME280;48842;51.046;13.796;2023-03-26T05:36:07;99312.03;;;10.79;58.94
62800;BME280;48842;51.046;13.796;2023-03-26T05:38:33;99319.03;;;10.80;58.93
62800;BME280;48842;51.046;13.796;2023-03-26T05:41:01;99316.34;;;10.83;58.76
62800;BME280;48842;51.046;13.796;2023-03-26T05:43:27;99313.72;;;10.83;58.84
62800;BME280;48842;51.046;13.796;2023-03-26T05:45:53;99317.16;;;10.88;58.38
62800;BME280;48842;51.046;13.796;2023-03-26T05:48:19;99318.03;;;10.89;58.61
62800;BME280;48842;51.046;13.796;2023-03-26T05:50:47;99317.13;;;10.91;58.55
62800;BME280;48842;51.046;13.796;2023-03-26T05:53:13;99326.75;;;10.91;58.69
62800;BME280;48842;51.046;13.796;2023-03-26T05:55:39;99320.66;;;10.87;58.29
62800;BME280;48842;51.046;13.796;2023-03-26T05:58:04;99318.78;;;10.97;58.58
62800;BME280;48842;51.046;13.796;2023-03-26T06:00:30;99322.38;;;10.91;58.19
62800;BME280;48842;51.046;13.796;2023-03-26T06:02:55;99327.63;;;10.90;58.11
62800;BME280;48842;51.046;13.796;2023-03-26T06:05:21;99322.47;;;10.85;58.33
62800;BME280;48842;51.046;13.796;2023-03-26T06:07:46;99327.56;;;10.94;58.51
62800;BME280;48842;51.046;13.796;2023-03-26T06:10:11;99319.56;;;11.02;58.25
62800;BME280;48842;51.046;13.796;2023-03-26T06:12:37;99317.78;;;11.07;58.01
62800;BME280;48842;51.046;13.796;2023-03-26T06:15:02;99317.66;;;11.15;58.29
62800;BME280;48842;51.046;13.796;2023-03-26T06:17:28;99321.97;;;11.19;58.02
62800;BME280;48842;51.046;13.796;2023-03-26T06:19:53;99316.66;;;11.22;57.74
62800;BME280;48842;51.046;13.796;2023-03-26T06:22:18;99324.53;;;11.22;57.56
62800;BME280;48842;51.046;13.796;2023-03-26T06:24:43;99321.00;;;11.25;57.15
62800;BME280;48842;51.046;13.796;2023-03-26T06:27:09;99317.53;;;11.21;57.23
62800;BME280;48842;51.046;13.796;2023-03-26T06:29:34;99317.63;;;11.16;56.89
62800;BME280;48842;51.046;13.796;2023-03-26T06:31:59;99312.44;;;11.13;57.07
62800;BME280;48842;51.046;13.796;2023-03-26T06:34:24;99314.13;;;11.17;57.39
62800;BME280;48842;51.046;13.796;2023-03-26T06:36:50;99314.09;;;11.19;57.06
62800;BME280;48842;51.046;13.796;2023-03-26T06:39:17;99307.88;;;11.26;56.86
62800;BME280;48842;51.046;13.796;2023-03-26T06:41:42;99311.56;;;11.13;57.23
62800;BME280;48842;51.046;13.796;2023-03-26T06:44:07;99313.25;;;11.17;57.38
62800;BME280;48842;51.046;13.796;2023-03-26T06:46:33;99311.28;;;11.31;57.08
62800;BME280;48842;51.046;13.796;2023-03-26T06:48:58;99296.22;;;11.44;58.57
62800;BME280;48842;51.046;13.796;2023-03-26T06:51:23;99304.72;;;11.59;57.28
62800;BME280;48842;51.046;13.796;2023-03-26T06:53:49;99299.28;;;11.69;56.94
62800;BME280;48842;51.046;13.796;2023-03-26T06:56:14;99298.41;;;11.69;56.61
62800;BME280;48842;51.046;13.796;2023-03-26T06:58:39;99303.81;;;11.61;56.58
62800;BME280;48842;51.046;13.796;2023-03-26T07:01:05;99287.38;;;11.50;56.16
62800;BME280;48842;51.046;13.796;2023-03-26T07:03:30;99291.78;;;11.48;56.82
62800;BME280;48842;51.046;13.796;2023-03-26T07:05:55;99289.81;;;11.62;56.45
62800;BME280;48842;51.046;13.796;2023-03-26T07:08:21;99293.25;;;11.64;55.86
62800;BME280;48842;51.046;13.796;2023-03-26T07:10:46;99297.78;;;11.55;55.96
62800;BME280;48842;51.046;13.796;2023-03-26T07:13:11;99298.66;;;11.57;56.57
62800;BME280;48842;51.046;13.796;2023-03-26T07:15:36;99303.91;;;11.55;56.44
62800;BME280;48842;51.046;13.796;2023-03-26T07:18:02;99296.00;;;11.58;56.12
62800;BME280;48842;51.046;13.796;2023-03-26T07:20:27;99296.72;;;11.65;55.68
62800;BME280;48842;51.046;13.796;2023-03-26T07:22:53;99300.28;;;11.64;55.54
62800;BME280;48842;51.046;13.796;2023-03-26T07:25:19;99295.31;;;11.45;54.98
62800;BME280;48842;51.046;13.796;2023-03-26T07:28:03;99298.56;;;11.61;54.82
62800;BME280;48842;51.046;13.796;2023-03-26T07:33:52;99290.59;;;11.66;54.76
62800;BME280;48842;51.046;13.796;2023-03-26T07:36:32;99295.06;;;11.62;54.36
62800;BME280;48842;51.046;13.796;2023-03-26T07:39:13;99279.19;;;11.68;54.57
62800;BME280;48842;51.046;13.796;2023-03-26T07:42:03;99286.84;;;11.81;53.87
62800;BME280;48842;51.046;13.796;2023-03-26T07:47:23;99294.78;;;11.76;53.06
62800;BME280;48842;51.046;13.796;2023-03-26T07:49:53;99289.41;;;11.84;53.65
62800;BME280;48842;51.046;13.796;2023-03-26T07:52:19;99281.38;;;11.95;53.72
62800;BME280;48842;51.046;13.796;2023-03-26T07:54:44;99289.28;;;11.93;53.19
62800;BME280;48842;51.046;13.796;2023-03-26T07:57:37;99291.66;;;12.05;53.36
62800;BME280;48842;51.046;13.796;2023-03-26T08:00:29;99287.28;;;12.04;53.51
62800;BME280;48842;51.046;13.796;2023-03-26T08:03:21;99287.34;;;12.01;53.11
62800;BME280;48842;51.046;13.796;2023-03-26T08:06:08;99288.06;;;12.11;53.75
62800;BME280;48842;51.046;13.796;2023-03-26T08:09:05;99284.41;;;12.18;53.50
62800;BME280;48842;51.046;13.796;2023-03-26T08:11:43;99287.06;;;12.17;53.04
62800;BME280;48842;51.046;13.796;2023-03-26T08:14:31;99285.53;;;12.07;53.05
62800;BME280;48842;51.046;13.796;2023-03-26T08:17:09;99284.72;;;12.01;53.95
62800;BME280;48842;51.046;13.796;2023-03-26T08:19:52;99278.47;;;12.09;54.10
62800;BME280;48842;51.046;13.796;2023-03-26T08:22:28;99274.16;;;12.04;54.10
62800;BME280;48842;51.046;13.796;2023-03-26T08:25:16;99282.91;;;12.07;53.68
62800;BME280;48842;51.046;13.796;2023-03-26T08:28:01;99281.00;;;12.13;54.13
62800;BME280;48842;51.046;13.796;2023-03-26T08:30:28;99280.88;;;12.21;54.04
62800;BME280;48842;51.046;13.796;2023-03-26T08:32:59;99276.50;;;12.20;52.75
62800;BME280;48842;51.046;13.796;2023-03-26T08:35:26;99282.53;;;12.25;53.18
62800;BME280;48842;51.046;13.796;2023-03-26T08:37:51;99274.66;;;12.25;53.18
62800;BME280;48842;51.046;13.796;2023-03-26T08:43:36;99277.50;;;12.14;52.25
62800;BME280;48842;51.046;13.796;2023-03-26T08:51:46;99269.25;;;12.33;52.13
62800;BME280;48842;51.046;13.796;2023-03-26T09:09:17;99252.78;;;12.65;50.16
62800;BME280;48842;51.046;13.796;2023-03-26T09:11:49;99250.06;;;12.70;50.89
62800;BME280;48842;51.046;13.796;2023-03-26T09:15:14;99253.22;;;12.84;49.92
62800;BME280;48842;51.046;13.796;2023-03-26T09:17:24;99246.81;;;12.96;50.03
62800;BME280;48842;51.046;13.796;2023-03-26T09:25:43;99246.09;;;12.91;49.20
62800;BME280;48842;51.046;13.796;2023-03-26T09:33:54;99241.22;;;13.12;49.28
62800;BME280;48842;51.046;13.796;2023-03-26T09:39:33;99231.91;;;13.34;48.80
62800;BME280;48842;51.046;13.796;2023-03-26T09:42:36;99231.00;;;13.35;47.63
62800;BME280;48842;51.046;13.796;2023-03-26T09:47:53;99217.56;;;13.46;47.22
62800;BME280;48842;51.046;13.796;2023-03-26T09:50:40;99209.63;;;13.48;47.17
62800;BME280;48842;51.046;13.796;2023-03-26T09:56:24;99207.25;;;14.03;47.36
62800;BME280;48842;51.046;13.796;2023-03-26T10:01:50;99210.69;;;14.36;45.56
62800;BME280;48842;51.046;13.796;2023-03-26T10:07:28;99195.97;;;14.29;44.15
62800;BME280;48842;51.046;13.796;2023-03-26T10:10:03;99193.53;;;14.23;44.48
62800;BME280;48842;51.046;13.796;2023-03-26T10:12:36;99194.78;;;14.09;44.29
62800;BME280;48842;51.046;13.796;2023-03-26T10:15:30;99192.88;;;14.14;44.39
62800;BME280;48842;51.046;13.796;2023-03-26T10:20:56;99178.00;;;14.13;42.41
62800;BME280;48842;51.046;13.796;2023-03-26T10:26:36;99168.28;;;14.44;41.74
62800;BME280;48842;51.046;13.796;2023-03-26T10:38:28;99150.19;;;14.33;40.78
62800;BME280;48842;51.046;13.796;2023-03-26T10:41:29;99137.31;;;14.24;41.24
62800;BME280;48842;51.046;13.796;2023-03-26T10:47:09;99128.66;;;14.19;41.68
62800;BME280;48842;51.046;13.796;2023-03-26T10:49:55;99126.53;;;14.31;41.89
62800;BME280;48842;51.046;13.796;2023-03-26T10:52:33;99110.38;;;14.42;42.01
62800;BME280;48842;51.046;13.796;2023-03-26T10:55:38;99110.78;;;14.57;42.51
62800;BME280;48842;51.046;13.796;2023-03-26T10:58:12;99102.31;;;14.75;42.71
62800;BME280;48842;51.046;13.796;2023-03-26T11:00:45;99106.56;;;14.79;42.18
62800;BME280;48842;51.046;13.796;2023-03-26T11:03:46;99096.66;;;14.86;41.81
62800;BME280;48842;51.046;13.796;2023-03-26T11:09:08;99090.72;;;15.06;43.09
62800;BME280;48842;51.046;13.796;2023-03-26T11:14:49;99075.34;;;15.43;41.08
62800;BME280;48842;51.046;13.796;2023-03-26T11:17:37;99076.06;;;15.48;40.90
62800;BME280;48842;51.046;13.796;2023-03-26T11:20:25;99066.69;;;15.63;40.31
62800;BME280;48842;51.046;13.796;2023-03-26T11:28:31;99063.50;;;16.02;40.90
62800;BME280;48842;51.046;13.796;2023-03-26T11:31:06;99059.50;;;16.14;40.09
62800;BME280;48842;51.046;13.796;2023-03-26T11:33:41;99053.97;;;16.20;40.26
62800;BME280;48842;51.046;13.796;2023-03-26T11:36:12;99056.28;;;16.28;39.99
62800;BME280;48842;51.046;13.796;2023-03-26T11:38:42;99046.47;;;16.31;39.86
62800;BME280;48842;51.046;13.796;2023-03-26T11:41:15;99049.06;;;16.33;39.60
62800;BME280;48842;51.046;13.796;2023-03-26T11:43:44;99046.59;;;16.28;39.37
62800;BME280;48842;51.046;13.796;2023-03-26T11:46:14;99037.56;;;16.12;38.87
62800;BME280;48842;51.046;13.796;2023-03-26T11:48:44;99034.50;;;16.00;39.32
62800;BME280;48842;51.046;13.796;2023-03-26T11:51:19;99030.66;;;15.85;38.66
62800;BME280;48842;51.046;13.796;2023-03-26T11:53:48;99035.44;;;15.76;39.62
62800;BME280;48842;51.046;13.796;2023-03-26T12:01:28;99034.22;;;15.61;39.73
62800;BME280;48842;51.046;13.796;2023-03-26T12:04:02;99038.56;;;15.62;39.65
62800;BME280;48842;51.046;13.796;2023-03-26T12:06:29;99043.63;;;15.68;39.53
62800;BME280;48842;51.046;13.796;2023-03-26T12:08:54;99032.09;;;15.70;39.78
62800;BME280;48842;51.046;13.796;2023-03-26T12:11:30;99032.22;;;15.67;38.68
62800;BME280;48842;51.046;13.796;2023-03-26T12:14:01;99036.63;;;15.67;39.46
62800;BME280;48842;51.046;13.796;2023-03-26T12:16:28;99029.75;;;15.63;39.26
62800;BME280;48842;51.046;13.796;2023-03-26T12:19:05;99029.09;;;15.56;39.85
62800;BME280;48842;51.046;13.796;2023-03-26T12:21:46;99037.25;;;15.50;40.17
62800;BME280;48842;51.046;13.796;2023-03-26T12:24:30;99024.25;;;15.45;39.72
62800;BME280;48842;51.046;13.796;2023-03-26T12:26:57;99026.31;;;15.37;39.44
62800;BME280;48842;51.046;13.796;2023-03-26T12:29:27;99023.78;;;15.34;39.50
62800;BME280;48842;51.046;13.796;2023-03-26T12:32:12;99024.81;;;15.30;40.23
62800;BME280;48842;51.046;13.796;2023-03-26T12:34:38;99022.28;;;15.27;39.17
62800;BME280;48842;51.046;13.796;2023-03-26T12:37:06;99014.59;;;15.21;39.61
62800;BME280;48842;51.046;13.796;2023-03-26T12:41:59;99019.56;;;15.05;39.72
62800;BME280;48842;51.046;13.796;2023-03-26T12:44:32;99019.97;;;14.94;39.45
62800;BME280;48842;51.046;13.796;2023-03-26T12:47:18;99022.06;;;14.84;39.49
62800;BME280;48842;51.046;13.796;2023-03-26T12:49:44;99019.47;;;14.82;40.01
62800;BME280;48842;51.046;13.796;2023-03-26T12:52:31;99022.06;;;14.84;40.15
62800;BME280;48842;51.046;13.796;2023-03-26T13:01:08;99014.88;;;14.88;40.08
62800;BME280;48842;51.046;13.796;2023-03-26T13:06:28;99012.13;;;14.91;40.45
62800;BME280;48842;51.046;13.796;2023-03-26T13:14:14;99000.78;;;14.89;40.77
62800;BME280;48842;51.046;13.796;2023-03-26T13:16:54;98991.09;;;14.89;40.81
62800;BME280;48842;51.046;13.796;2023-03-26T13:19:32;98990.13;;;14.92;40.44
62800;BME280;48842;51.046;13.796;2023-03-26T13:22:07;98987.44;;;14.93;40.65
62800;BME280;48842;51.046;13.796;2023-03-26T13:25:01;98986.47;;;14.96;40.54
62800;BME280;48842;51.046;13.796;2023-03-26T13:27:49;98988.22;;;14.97;40.89
62800;BME280;48842;51.046;13.796;2023-03-26T13:30:38;98981.25;;;14.94;40.42
62800;BME280;48842;51.046;13.796;2023-03-26T13:33:25;98977.72;;;14.95;40.76
62800;BME280;48842;51.046;13.796;2023-03-26T13:36:13;98978.34;;;15.02;40.86
62800;BME280;48842;51.046;13.796;2023-03-26T13:38:55;98977.31;;;15.06;40.68
62800;BME280;48842;51.046;13.796;2023-03-26T13:44:16;98964.66;;;15.16;41.30
62800;BME280;48842;51.046;13.796;2023-03-26T13:46:52;98966.22;;;15.22;40.63
62800;BME280;48842;51.046;13.796;2023-03-26T13:52:18;98959.94;;;15.24;40.68
62800;BME280;48842;51.046;13.796;2023-03-26T13:54:48;98957.59;;;15.16;40.19
62800;BME280;48842;51.046;13.796;2023-03-26T13:57:30;98958.56;;;15.14;40.83
62800;BME280;48842;51.046;13.796;2023-03-26T14:02:36;98972.38;;;14.97;40.36
62800;BME280;48842;51.046;13.796;2023-03-26T14:05:26;98978.53;;;14.72;42.02
62800;BME280;48842;51.046;13.796;2023-03-26T14:08:04;98974.81;;;14.51;42.88
62800;BME280;48842;51.046;13.796;2023-03-26T14:10:39;98976.38;;;14.31;43.18
62800;BME280;48842;51.046;13.796;2023-03-26T14:15:52;98982.88;;;14.21;44.03
62800;BME280;48842;51.046;13.796;2023-03-26T14:18:40;98996.19;;;14.17;44.11
62800;BME280;48842;51.046;13.796;2023-03-26T14:24:35;98981.66;;;14.05;45.44
62800;BME280;48842;51.046;13.796;2023-03-26T14:27:36;98975.63;;;14.01;45.95
62800;BME280;48842;51.046;13.796;2023-03-26T14:30:36;98979.25;;;13.97;45.84
62800;BME280;48842;51.046;13.796;2023-03-26T14:35:58;98993.47;;;13.91;46.10
62800;BME280;48842;51.046;13.796;2023-03-26T14:51:46;99002.59;;;13.51;49.92
62800;BME280;48842;51.046;13.796;2023-03-26T14:54:20;98994.66;;;13.53;49.89
62800;BME280;48842;51.046;13.796;2023-03-26T15:06:06;98989.03;;;13.35;51.62
62800;BME280;48842;51.046;13.796;2023-03-26T15:14:38;98985.19;;;13.16;52.48
62800;BME280;48842;51.046;13.796;2023-03-26T15:28:41;98991.25;;;12.88;52.82
62800;BME280;48842;51.046;13.796;2023-03-26T15:37:39;98988.78;;;12.80;52.32
62800;BME280;48842;51.046;13.796;2023-03-26T15:40:27;98983.44;;;12.83;52.62
62800;BME280;48842;51.046;13.796;2023-03-26T15:45:30;98976.53;;;12.81;52.58
62800;BME280;48842;51.046;13.796;2023-03-26T16:01:44;98976.44;;;12.51;53.93
62800;BME280;48842;51.046;13.796;2023-03-26T16:04:23;98978.25;;;12.49;53.92
62800;BME280;48842;51.046;13.796;2023-03-26T16:06:59;98984.66;;;12.38;53.39
62800;BME280;48842;51.046;13.796;2023-03-26T16:34:41;98990.81;;;11.62;57.20
62800;BME280;48842;51.046;13.796;2023-03-26T16:36:45;98991.63;;;11.64;57.32
62800;BME280;48842;51.046;13.796;2023-03-26T16:39:17;98991.63;;;11.64;57.70
62800;BME280;48842;51.046;13.796;2023-03-26T16:44:18;98996.75;;;11.69;58.04
62800;BME280;48842;51.046;13.796;2023-03-26T16:47:03;98995.84;;;11.72;58.40
62800;BME280;48842;51.046;13.796;2023-03-26T16:49:53;98999.28;;;11.74;58.53
62800;BME280;48842;51.046;13.796;2023-03-26T16:52:40;99000.13;;;11.76;58.56
62800;BME280;48842;51.046;13.796;2023-03-26T16:55:35;98996.53;;;11.78;58.72